Time;durP1;ratioP1;P1;durP2;ratioP2;P2;SDS_P1;SDS_P2;PMS_P1;PMS_P2;Temp;Humidity;BMP_temperature;BMP_pressure;BME280_temperature;BME280_humidity;BME280_pressure;Samples;Min_cycle;Max_cycle;Signal;HPM_P1;HPM_P2
2022/01/18 00:01:33;;;;;;;3.13;1.48;;;17.60;56.30;;;;;;5052450;28;20179;-60
2022/01/18 00:03:59;;;;;;;5.15;2.08;;;17.60;56.30;;;;;;5051876;28;20229;-59
2022/01/18 00:06:24;;;;;;;3.03;1.48;;;17.60;56.20;;;;;;5052400;28;20171;-60
2022/01/18 00:08:50;;;;;;;3.63;1.70;;;17.60;56.30;;;;;;5051483;28;20182;-59
2022/01/18 00:11:17;;;;;;;4.82;1.85;;;17.50;56.20;;;;;;5052100;28;20175;-60
2022/01/18 00:13:46;;;;;;;2.90;1.52;;;17.50;56.10;;;;;;5052376;28;20175;-61
2022/01/18 00:18:51;;;;;;;7.00;2.45;;;17.50;56.10;;;;;;5052616;28;20567;-61
2022/01/18 00:23:52;;;;;;;3.80;1.83;;;17.50;56.10;;;;;;5051770;28;20568;-60
2022/01/18 00:26:18;;;;;;;5.75;1.75;;;17.50;56.20;;;;;;5052351;28;20175;-60
2022/01/18 00:28:49;;;;;;;3.83;1.42;;;17.50;56.20;;;;;;5052090;28;20265;-59
2022/01/18 00:31:35;;;;;;;5.88;2.13;;;17.50;56.20;;;;;;5051778;28;20232;-59
2022/01/18 00:39:13;;;;;;;5.75;1.90;;;17.40;56.10;;;;;;5051411;28;20274;-60
2022/01/18 00:41:39;;;;;;;3.33;1.65;;;17.40;56.20;;;;;;5051951;28;20190;-60
2022/01/18 00:44:05;;;;;;;3.85;1.83;;;17.40;56.10;;;;;;5052383;28;20179;-60
2022/01/18 00:46:31;;;;;;;3.47;1.45;;;17.40;56.20;;;;;;5049886;28;20175;-60
2022/01/18 00:49:00;;;;;;;5.63;1.88;;;17.40;56.10;;;;;;5051945;28;20244;-59
2022/01/18 00:51:26;;;;;;;3.88;1.67;;;17.40;56.20;;;;;;5051567;28;20265;-59
2022/01/18 00:53:51;;;;;;;5.07;2.13;;;17.40;56.20;;;;;;5051266;28;20573;-60
2022/01/18 00:56:26;;;;;;;4.28;1.70;;;17.40;56.20;;;;;;5052033;28;20215;-61
2022/01/18 00:58:51;;;;;;;4.78;2.05;;;17.40;56.10;;;;;;5051395;28;20257;-59
2022/01/18 01:01:17;;;;;;;2.95;1.67;;;17.30;56.10;;;;;;5051858;28;20262;-60
2022/01/18 01:03:43;;;;;;;4.18;1.60;;;17.40;56.10;;;;;;5051441;28;20175;-59
2022/01/18 01:06:08;;;;;;;8.25;2.30;;;17.40;56.10;;;;;;5051075;28;20316;-59
2022/01/18 01:08:34;;;;;;;4.78;2.08;;;17.30;56.10;;;;;;5051101;28;20179;-59
2022/01/18 01:11:00;;;;;;;3.65;1.92;;;17.30;56.10;;;;;;5051991;28;20167;-60
2022/01/18 01:13:27;;;;;;;3.92;1.95;;;17.30;56.10;;;;;;5050798;28;20202;-60
2022/01/18 01:32:30;;;;;;;3.33;1.88;;;17.20;56.00;;;;;;5051488;28;20174;-60
2022/01/18 01:35:06;;;;;;;5.28;2.20;;;17.20;56.00;;;;;;5051036;28;20246;-59
2022/01/18 01:43:21;;;;;;;5.35;2.08;;;17.20;56.00;;;;;;5050550;28;20185;-60
2022/01/18 01:45:35;;;;;;;6.03;2.00;;;17.20;56.00;;;;;;5049753;28;20191;-59
2022/01/18 01:48:01;;;;;;;4.47;2.05;;;17.20;56.00;;;;;;5050478;28;20176;-59
2022/01/18 01:50:39;;;;;;;5.78;1.90;;;17.20;56.00;;;;;;5050823;28;20755;-60
2022/01/18 01:53:05;;;;;;;5.95;2.22;;;17.20;56.00;;;;;;5051325;28;20183;-60
2022/01/18 01:55:30;;;;;;;3.47;2.10;;;17.10;56.00;;;;;;5050303;28;20210;-60
2022/01/18 01:57:56;;;;;;;5.43;1.90;;;17.20;56.00;;;;;;5051051;28;20186;-60
2022/01/18 02:00:21;;;;;;;6.53;2.67;;;17.10;56.00;;;;;;5050759;28;20182;-60
2022/01/18 02:02:47;;;;;;;4.88;2.22;;;17.20;56.00;;;;;;5050399;28;20188;-59
2022/01/18 02:05:12;;;;;;;4.47;2.08;;;17.10;56.00;;;;;;5051059;28;20264;-59
2022/01/18 02:07:38;;;;;;;5.82;2.22;;;17.10;56.00;;;;;;5050959;28;20175;-59
2022/01/18 02:10:07;;;;;;;4.25;2.28;;;17.10;56.00;;;;;;5050472;28;20255;-59
2022/01/18 02:12:33;;;;;;;4.68;1.90;;;17.10;56.00;;;;;;5050699;28;20171;-60
2022/01/18 02:15:00;;;;;;;5.68;2.00;;;17.10;56.00;;;;;;5050873;28;20244;-61
2022/01/18 02:22:54;;;;;;;4.95;1.92;;;17.10;56.00;;;;;;5054010;28;20586;-59
2022/01/18 02:25:20;;;;;;;3.88;1.85;;;17.10;56.00;;;;;;5054222;28;20175;-59
2022/01/18 02:27:45;;;;;;;3.78;1.90;;;17.10;56.00;;;;;;5055100;28;20186;-60
2022/01/18 02:30:11;;;;;;;5.20;2.38;;;17.10;56.10;;;;;;5053943;28;20175;-60
2022/01/18 02:32:37;;;;;;;4.05;1.67;;;17.10;56.10;;;;;;5054240;28;20270;-60
2022/01/18 02:35:03;;;;;;;2.90;1.92;;;17.10;56.10;;;;;;5054239;28;20211;-58
2022/01/18 02:37:28;;;;;;;5.25;2.35;;;17.00;56.00;;;;;;5051925;28;20258;-60
2022/01/18 02:39:54;;;;;;;4.60;1.88;;;17.00;56.00;;;;;;5054178;28;20657;-59
2022/01/18 02:42:23;;;;;;;5.40;2.38;;;17.00;56.10;;;;;;5053744;28;20167;-60
2022/01/18 02:44:49;;;;;;;5.10;1.70;;;17.00;56.00;;;;;;5053500;28;20262;-60
2022/01/18 02:47:17;;;;;;;4.93;2.20;;;17.00;56.00;;;;;;5054160;28;20175;-60
2022/01/18 02:49:43;;;;;;;5.25;2.30;;;17.00;56.00;;;;;;5053528;28;20361;-60
2022/01/18 02:52:08;;;;;;;4.63;1.80;;;17.00;56.00;;;;;;5053196;28;20604;-60
2022/01/18 02:54:34;;;;;;;4.38;2.08;;;17.00;56.10;;;;;;5053454;28;20217;-60
2022/01/18 02:57:01;;;;;;;6.60;2.22;;;17.00;56.00;;;;;;5053681;28;20167;-60
2022/01/18 02:59:37;;;;;;;6.03;2.08;;;17.00;56.00;;;;;;5052882;28;20559;-60
2022/01/18 03:05:04;;;;;;;5.57;2.22;;;16.90;56.00;;;;;;5053501;28;20205;-59
2022/01/18 03:07:30;;;;;;;5.80;2.28;;;17.00;56.00;;;;;;5053101;28;20183;-59
2022/01/18 03:09:55;;;;;;;4.25;1.88;;;16.90;56.00;;;;;;5053713;28;20459;-59
2022/01/18 03:12:21;;;;;;;5.88;2.10;;;16.90;56.00;;;;;;5052756;28;20171;-61
2022/01/18 03:14:46;;;;;;;5.65;2.70;;;16.90;56.00;;;;;;5053753;28;20206;-61
2022/01/18 03:17:12;;;;;;;4.07;2.10;;;16.90;56.00;;;;;;5053547;28;20191;-60
2022/01/18 03:19:37;;;;;;;4.25;1.88;;;16.90;56.00;;;;;;5052409;28;20587;-60
2022/01/18 03:22:03;;;;;;;3.50;1.90;;;16.90;56.10;;;;;;5053596;28;20251;-60
2022/01/18 03:29:58;;;;;;;4.75;1.70;;;16.90;56.10;;;;;;5031060;28;20539;-60
2022/01/18 03:32:24;;;;;;;6.00;2.20;;;16.90;56.10;;;;;;5030456;28;20183;-60
2022/01/18 03:34:49;;;;;;;3.53;1.50;;;16.90;56.00;;;;;;5040329;28;20571;-59
2022/01/18 03:37:15;;;;;;;4.30;1.88;;;16.90;56.10;;;;;;5053120;28;20484;-59
2022/01/18 03:39:40;;;;;;;3.38;1.85;;;16.90;56.10;;;;;;5052724;28;20716;-59
2022/01/18 03:42:49;;;;;;;3.70;1.85;;;16.90;56.10;;;;;;5052115;28;20182;-60
2022/01/18 03:44:58;;;;;;;3.67;1.58;;;16.90;56.70;;;;;;5049771;28;20183;-60
2022/01/18 03:47:23;;;;;;;4.10;1.75;;;16.80;56.00;;;;;;5051890;28;20496;-59
2022/01/18 03:49:49;;;;;;;4.28;2.10;;;16.80;56.00;;;;;;5052568;28;20226;-59
2022/01/18 03:52:14;;;;;;;4.80;1.70;;;16.80;56.10;;;;;;5052830;28;20212;-60
2022/01/18 03:54:44;;;;;;;4.18;1.98;;;16.90;56.10;;;;;;5051706;28;20322;-61
2022/01/18 03:57:12;;;;;;;2.92;1.75;;;16.80;56.00;;;;;;5052657;28;20254;-60
2022/01/18 03:59:37;;;;;;;4.35;2.22;;;16.80;56.00;;;;;;5052529;28;20221;-60
2022/01/18 04:02:03;;;;;;;4.20;2.17;;;16.80;56.00;;;;;;5051926;28;20171;-60
2022/01/18 04:04:29;;;;;;;5.00;2.25;;;16.80;56.00;;;;;;5052294;28;20543;-60
2022/01/18 04:06:54;;;;;;;4.88;2.40;;;16.80;56.00;;;;;;5052598;28;20275;-59
2022/01/18 04:09:20;;;;;;;4.18;2.00;;;16.80;56.00;;;;;;5051532;28;20249;-59
2022/01/18 04:11:46;;;;;;;2.45;1.50;;;16.80;56.00;;;;;;5052343;28;20179;-61
2022/01/18 04:14:11;;;;;;;6.47;1.90;;;16.80;56.60;;;;;;5052579;28;20175;-61
2022/01/18 04:16:44;;;;;;;3.85;1.90;;;16.80;56.00;;;;;;5051330;28;20693;-60
2022/01/18 04:25:46;;;;;;;6.93;2.25;;;16.70;56.00;;;;;;5052194;28;20583;-60
2022/01/18 04:27:31;;;;;;;4.10;1.92;;;16.80;56.00;;;;;;5051912;28;20190;-60
2022/01/18 04:29:57;;;;;;;3.92;2.47;;;16.70;56.00;;;;;;5051660;28;20175;-60
2022/01/18 04:32:22;;;;;;;4.40;1.85;;;16.70;56.00;;;;;;5051898;28;20191;-60
2022/01/18 04:34:48;;;;;;;4.90;2.13;;;16.80;56.00;;;;;;5051925;28;20203;-59
2022/01/18 04:37:13;;;;;;;7.88;2.53;;;16.70;56.00;;;;;;5051361;28;20536;-59
2022/01/18 04:39:41;;;;;;;4.85;1.58;;;16.70;56.60;;;;;;5051864;28;20186;-59
2022/01/18 04:42:14;;;;;;;2.88;1.83;;;16.70;56.00;;;;;;5051914;28;20255;-58
2022/01/18 04:48:25;;;;;;;4.13;1.80;;;16.70;56.00;;;;;;5050622;28;20970;-60
2022/01/18 04:48:25;;;;;;;3.65;1.90;;;16.70;56.00;;;;;;5051657;28;20187;-59
2022/01/18 04:50:22;;;;;;;3.85;1.83;;;16.70;56.00;;;;;;5051449;28;20223;-60
2022/01/18 04:52:48;;;;;;;4.55;1.90;;;16.70;56.00;;;;;;5051138;28;20175;-60
2022/01/18 04:55:15;;;;;;;4.63;2.10;;;16.70;56.00;;;;;;5051815;28;20616;-60
2022/01/18 04:57:53;;;;;;;4.53;2.40;;;16.70;56.00;;;;;;5050692;28;20171;-61
2022/01/18 05:00:20;;;;;;;3.22;1.77;;;16.70;56.00;;;;;;5051488;28;20528;-61
2022/01/18 05:02:47;;;;;;;4.97;1.80;;;16.60;55.90;;;;;;5051819;28;20256;-59
2022/01/18 05:05:22;;;;;;;5.28;2.40;;;16.60;55.90;;;;;;5051120;28;20174;-60
2022/01/18 05:07:48;;;;;;;6.30;1.80;;;16.60;56.00;;;;;;5051767;28;20182;-60
2022/01/18 05:10:16;;;;;;;4.32;1.83;;;16.60;56.00;;;;;;5051632;28;20665;-60
2022/01/18 05:12:46;;;;;;;4.15;1.80;;;16.60;56.10;;;;;;5050806;28;20202;-60
2022/01/18 05:15:40;;;;;;;4.30;1.60;;;16.60;56.00;;;;;;5052011;28;20698;-60
2022/01/18 05:23:28;;;;;;;6.90;1.83;;;16.60;56.00;;;;;;5051555;28;20233;-60
2022/01/18 05:25:54;;;;;;;6.20;2.38;;;16.60;56.00;;;;;;5050918;28;20183;-60
2022/01/18 05:28:19;;;;;;;3.08;1.70;;;16.60;56.00;;;;;;5051532;28;20181;-60
2022/01/18 05:30:45;;;;;;;4.63;2.20;;;16.60;56.00;;;;;;5051602;28;20207;-59
2022/01/18 05:33:10;;;;;;;4.45;2.00;;;16.60;55.90;;;;;;5050887;28;20183;-59
2022/01/18 05:35:36;;;;;;;4.30;1.80;;;16.50;55.90;;;;;;5051209;28;20348;-59
2022/01/18 05:38:01;;;;;;;7.68;2.38;;;16.60;55.90;;;;;;5051590;28;20174;-59
2022/01/18 05:40:27;;;;;;;4.32;1.90;;;16.60;55.90;;;;;;5050576;28;20511;-59
2022/01/18 05:42:52;;;;;;;5.43;2.22;;;16.50;55.90;;;;;;5051638;28;20547;-59
2022/01/18 05:45:18;;;;;;;4.43;1.85;;;16.60;56.00;;;;;;5051442;28;20590;-59
2022/01/18 05:47:43;;;;;;;4.95;2.10;;;16.50;55.90;;;;;;5050588;28;20183;-60
2022/01/18 05:50:10;;;;;;;3.80;2.10;;;16.60;56.00;;;;;;5051175;28;20281;-60
2022/01/18 05:52:36;;;;;;;2.67;1.85;;;16.50;56.00;;;;;;5051182;28;20186;-61
2022/01/18 05:55:01;;;;;;;5.35;2.00;;;16.50;56.00;;;;;;5052756;28;20195;-60
2022/01/18 05:57:27;;;;;;;4.07;1.75;;;16.50;55.90;;;;;;5054844;28;20665;-61
2022/01/18 05:59:55;;;;;;;4.35;1.73;;;16.50;56.00;;;;;;5055040;28;20716;-60
2022/01/18 06:03:11;;;;;;;4.32;2.33;;;16.50;55.90;;;;;;5054021;28;20179;-60
2022/01/18 06:07:54;;;;;;;5.40;2.03;;;16.50;55.90;;;;;;5054994;28;20680;-59
2022/01/18 06:10:20;;;;;;;5.90;2.30;;;16.50;56.00;;;;;;5053798;28;20171;-60
2022/01/18 06:12:45;;;;;;;4.55;1.83;;;16.50;56.00;;;;;;5054960;28;20178;-62
2022/01/18 06:15:11;;;;;;;5.13;1.90;;;16.50;56.00;;;;;;5054042;28;20624;-60
2022/01/18 06:17:38;;;;;;;4.10;2.25;;;16.50;56.00;;;;;;5054436;28;20254;-60
2022/01/18 06:20:04;;;;;;;5.30;2.20;;;16.50;56.00;;;;;;5054921;28;20199;-60
2022/01/18 06:22:30;;;;;;;4.80;1.90;;;16.50;56.00;;;;;;5053540;28;20203;-60
2022/01/18 06:24:55;;;;;;;4.40;1.95;;;16.40;55.90;;;;;;5054414;28;20638;-60
2022/01/18 06:27:21;;;;;;;4.30;2.03;;;16.50;56.10;;;;;;5054096;28;20171;-60
2022/01/18 06:29:46;;;;;;;4.78;1.85;;;16.40;55.90;;;;;;5053656;28;20183;-60
2022/01/18 06:32:12;;;;;;;3.10;1.70;;;16.50;56.00;;;;;;5054478;28;20237;-60
2022/01/18 06:34:37;;;;;;;3.83;2.15;;;16.40;55.90;;;;;;5054200;28;20539;-60
2022/01/18 06:37:03;;;;;;;3.15;1.67;;;16.40;55.90;;;;;;5053701;28;20171;-59
2022/01/18 06:39:29;;;;;;;4.60;2.03;;;16.40;56.00;;;;;;5054243;28;20529;-59
2022/01/18 06:41:54;;;;;;;3.75;1.80;;;16.40;56.00;;;;;;5054351;28;20178;-59
2022/01/18 06:44:20;;;;;;;3.20;1.75;;;16.40;56.00;;;;;;5053421;28;20171;-59
2022/01/18 06:46:45;;;;;;;4.75;2.42;;;16.40;56.00;;;;;;5054495;28;20175;-59
2022/01/18 06:49:11;;;;;;;2.95;1.67;;;16.40;56.00;;;;;;5053968;28;20302;-60
2022/01/18 06:51:36;;;;;;;4.20;1.60;;;16.40;56.00;;;;;;5053061;28;20191;-59
2022/01/18 06:54:02;;;;;;;3.85;1.65;;;16.40;56.00;;;;;;5054054;28;20198;-60
2022/01/18 06:56:28;;;;;;;4.57;2.00;;;16.40;56.00;;;;;;5053443;28;20743;-61
2022/01/18 06:58:53;;;;;;;3.03;1.80;;;16.40;56.00;;;;;;5053170;28;20175;-59
2022/01/18 07:01:19;;;;;;;3.88;1.92;;;16.40;56.00;;;;;;5053688;28;20626;-59
2022/01/18 07:03:45;;;;;;;3.92;1.65;;;16.40;55.90;;;;;;5053784;28;20232;-60
2022/01/18 07:06:10;;;;;;;3.08;1.52;;;16.40;56.00;;;;;;5052560;28;20581;-59
2022/01/18 07:08:36;;;;;;;3.40;1.88;;;16.40;56.00;;;;;;5053480;28;20175;-60
2022/01/18 07:11:02;;;;;;;3.40;1.85;;;16.40;56.00;;;;;;5053687;28;20244;-59
2022/01/18 07:13:27;;;;;;;5.03;1.80;;;16.40;56.00;;;;;;5052831;28;20175;-60
2022/01/18 07:15:53;;;;;;;4.43;2.08;;;16.30;56.00;;;;;;5053631;28;20294;-60
2022/01/18 07:18:18;;;;;;;3.50;1.98;;;16.30;56.00;;;;;;5052773;28;20463;-61
2022/01/18 07:20:45;;;;;;;4.47;2.13;;;16.30;56.00;;;;;;5053187;28;20244;-60
2022/01/18 07:23:12;;;;;;;4.38;1.98;;;16.30;56.00;;;;;;5053392;28;20541;-59
2022/01/18 07:25:44;;;;;;;4.00;1.90;;;16.30;56.00;;;;;;5052320;28;20743;-60
2022/01/18 07:28:10;;;;;;;3.40;1.88;;;16.30;56.00;;;;;;5053495;28;20171;-59
2022/01/18 07:30:36;;;;;;;3.03;1.75;;;16.30;56.00;;;;;;5052932;28;20638;-59
2022/01/18 07:33:03;;;;;;;3.13;1.58;;;16.30;56.00;;;;;;5052744;28;20179;-59
2022/01/18 07:35:29;;;;;;;2.53;1.55;;;16.30;56.70;;;;;;5052939;28;20234;-59
2022/01/18 07:37:56;;;;;;;2.47;1.35;;;16.30;56.00;;;;;;5053185;28;20642;-59
2022/01/18 07:40:22;;;;;;;3.28;1.48;;;16.30;56.10;;;;;;5052105;28;20186;-59
2022/01/18 07:42:47;;;;;;;4.10;2.20;;;16.40;56.20;;;;;;5053148;28;20588;-59
2022/01/18 07:45:13;;;;;;;3.28;1.80;;;16.60;56.10;;;;;;5053178;28;20178;-59
2022/01/18 07:47:39;;;;;;;3.22;1.60;;;16.80;56.00;;;;;;5051924;28;20542;-59
2022/01/18 07:50:05;;;;;;;3.47;1.52;;;17.00;55.60;;;;;;5052799;28;20260;-59
2022/01/18 07:52:35;;;;;;;2.22;1.60;;;17.20;55.30;;;;;;5052413;28;20257;-63
2022/01/18 07:55:01;;;;;;;2.13;1.42;;;17.40;55.10;;;;;;5052103;28;20268;-60
2022/01/18 07:57:27;;;;;;;4.75;1.63;;;17.60;54.90;;;;;;5052530;28;20298;-63
2022/01/18 07:59:52;;;;;;;3.45;1.50;;;17.80;55.00;;;;;;5052380;28;20301;-62
2022/01/18 08:02:18;;;;;;;3.45;1.65;;;17.90;54.80;;;;;;5051413;28;20224;-61
2022/01/18 08:04:43;;;;;;;3.35;1.50;;;18.00;55.00;;;;;;5052253;28;20175;-61
2022/01/18 08:07:09;;;;;;;3.13;1.77;;;18.20;54.90;;;;;;5052300;28;20175;-61
2022/01/18 08:09:36;;;;;;;2.22;1.40;;;18.20;55.00;;;;;;5051026;28;20171;-60
2022/01/18 08:12:02;;;;;;;5.50;1.83;;;18.20;55.10;;;;;;5051927;28;20175;-60
2022/01/18 08:14:31;;;;;;;3.88;2.20;;;18.40;55.20;;;;;;5050616;28;20266;-60
2022/01/18 08:17:04;;;;;;;3.72;1.40;;;18.40;55.20;;;;;;5048537;28;20183;-61
2022/01/18 08:19:33;;;;;;;6.13;1.90;;;18.50;55.10;;;;;;5050861;28;20179;-60
2022/01/18 08:21:58;;;;;;;4.68;1.70;;;18.50;55.20;;;;;;5051142;28;20203;-60
2022/01/18 08:24:24;;;;;;;3.65;1.80;;;18.50;55.20;;;;;;5051410;28;20167;-60
2022/01/18 08:26:49;;;;;;;5.10;1.77;;;18.50;55.20;;;;;;5051675;28;20192;-60
2022/01/18 08:29:15;;;;;;;4.10;1.45;;;18.50;55.30;;;;;;5051131;28;20201;-62
2022/01/18 08:31:40;;;;;;;3.67;2.03;;;18.40;55.20;;;;;;5051507;28;20183;-62
2022/01/18 08:34:06;;;;;;;7.78;2.25;;;18.40;55.30;;;;;;5051880;28;20258;-62
2022/01/18 08:36:31;;;;;;;5.20;1.88;;;18.40;55.20;;;;;;5051157;28;20730;-61
2022/01/18 08:38:57;;;;;;;3.15;1.50;;;18.40;55.30;;;;;;5051940;28;20179;-61
2022/01/18 08:41:22;;;;;;;4.22;2.00;;;18.40;55.20;;;;;;5051600;28;20171;-61
2022/01/18 08:43:48;;;;;;;3.88;1.75;;;18.40;55.20;;;;;;5051083;28;20171;-61
2022/01/18 08:46:14;;;;;;;5.30;2.00;;;18.40;55.20;;;;;;5051467;28;20559;-60
2022/01/18 08:48:39;;;;;;;2.97;1.60;;;18.50;55.20;;;;;;5051163;28;20182;-61
2022/01/18 08:51:05;;;;;;;3.47;2.00;;;18.50;55.20;;;;;;5050871;28;20183;-61
2022/01/18 08:53:30;;;;;;;3.60;1.67;;;18.50;55.20;;;;;;5051266;28;20240;-61
2022/01/18 08:55:56;;;;;;;3.60;1.45;;;18.50;55.20;;;;;;5051636;28;20214;-62
2022/01/18 08:58:22;;;;;;;2.78;1.60;;;18.50;55.30;;;;;;5050353;28;20210;-61
2022/01/18 09:00:48;;;;;;;3.63;1.70;;;18.50;55.20;;;;;;5051456;28;20206;-62
2022/01/18 09:03:13;;;;;;;2.85;1.15;;;18.50;55.10;;;;;;5051397;28;20171;-61
2022/01/18 09:05:39;;;;;;;4.38;1.90;;;18.50;55.10;;;;;;5050376;28;20220;-61
2022/01/18 09:08:06;;;;;;;2.83;1.80;;;18.50;55.10;;;;;;5051697;28;20254;-61
2022/01/18 09:10:31;;;;;;;3.20;2.08;;;18.50;55.10;;;;;;5051213;28;20207;-60
2022/01/18 09:12:57;;;;;;;2.17;1.40;;;18.50;55.10;;;;;;5050817;28;20202;-61
2022/01/18 09:15:25;;;;;;;2.83;1.55;;;18.50;55.10;;;;;;5051119;28;20649;-60
2022/01/18 09:17:50;;;;;;;2.95;1.73;;;18.50;55.00;;;;;;5051132;28;20175;-61
2022/01/18 09:20:16;;;;;;;3.28;2.03;;;18.60;55.00;;;;;;5050741;28;20626;-61
2022/01/18 09:22:43;;;;;;;2.42;1.45;;;18.50;55.10;;;;;;5051207;28;20171;-60
2022/01/18 09:25:15;;;;;;;3.58;1.60;;;18.60;55.00;;;;;;5050699;28;20249;-61
2022/01/18 09:27:40;;;;;;;2.83;1.73;;;18.60;55.00;;;;;;5051120;28;20232;-61
2022/01/18 09:30:07;;;;;;;2.75;1.50;;;18.60;55.00;;;;;;5053909;28;20621;-61
2022/01/18 09:32:32;;;;;;;3.83;1.60;;;18.60;55.00;;;;;;5054095;28;20681;-61
2022/01/18 09:34:58;;;;;;;3.35;1.50;;;18.60;54.90;;;;;;5055364;28;20242;-62
2022/01/18 09:37:23;;;;;;;2.88;1.30;;;18.60;54.90;;;;;;5054983;28;20167;-62
2022/01/18 09:39:49;;;;;;;2.25;1.35;;;18.60;55.00;;;;;;5054531;28;20167;-62
2022/01/18 09:42:14;;;;;;;4.22;1.75;;;18.50;55.10;;;;;;5055219;28;20178;-61
2022/01/18 09:44:40;;;;;;;2.35;1.65;;;18.40;55.10;;;;;;5054501;28;20195;-61
2022/01/18 09:47:08;;;;;;;2.13;1.35;;;18.30;55.20;;;;;;5054404;28;20249;-61
2022/01/18 09:49:34;;;;;;;2.95;1.50;;;18.30;55.70;;;;;;5054671;28;20255;-61
2022/01/18 09:52:00;;;;;;;4.10;2.00;;;18.20;55.50;;;;;;5054895;28;20202;-61
2022/01/18 09:54:25;;;;;;;2.38;1.77;;;18.20;55.60;;;;;;5053874;28;20164;-61
2022/01/18 09:56:51;;;;;;;3.72;1.50;;;18.10;55.70;;;;;;5054907;28;20262;-61
2022/01/18 09:59:16;;;;;;;3.35;1.95;;;18.20;55.90;;;;;;5054621;28;20209;-61
2022/01/18 10:01:42;;;;;;;3.72;1.88;;;18.10;55.80;;;;;;5053292;28;20621;-62
2022/01/18 10:04:15;;;;;;;2.20;1.80;;;18.10;55.90;;;;;;5054853;28;20270;-66
2022/01/18 10:06:41;;;;;;;3.20;1.77;;;18.20;55.70;;;;;;5054430;28;20309;-62
2022/01/18 10:09:14;;;;;;;4.72;1.65;;;18.20;55.60;;;;;;5053729;28;20665;-63
2022/01/18 10:12:00;;;;;;;5.85;1.73;;;18.20;55.60;;;;;;5054141;28;20782;-62
2022/01/18 10:14:26;;;;;;;2.45;1.50;;;18.30;55.60;;;;;;5053171;28;20342;-63
2022/01/18 10:16:52;;;;;;;4.00;1.70;;;18.30;55.60;;;;;;5054622;28;20556;-63
2022/01/18 10:19:47;;;;;;;2.97;1.42;;;18.30;55.70;;;;;;5054164;28;20182;-62
2022/01/18 10:22:24;;;;;;;2.50;1.30;;;18.20;56.30;;;;;;5053339;28;20264;-62
2022/01/18 10:24:52;;;;;;;5.47;1.50;;;18.20;55.80;;;;;;5054205;28;20584;-63
2022/01/18 10:27:18;;;;;;;3.65;1.55;;;18.10;55.90;;;;;;5053429;28;20657;-66
2022/01/18 10:29:49;;;;;;;2.72;1.38;;;18.20;55.90;;;;;;5061520;28;20179;-67
2022/01/18 10:32:34;;;;;;;4.03;1.45;;;18.10;55.90;;;;;;5061178;28;20236;-67
2022/01/18 10:37:29;;;;;;;3.75;1.30;;;18.10;56.10;;;;;;5037370;28;20172;-67
2022/01/18 10:40:04;;;;;;;2.65;1.40;;;18.10;56.00;;;;;;5034166;28;20207;-68
2022/01/18 10:42:52;;;;;;;3.10;1.63;;;18.10;56.00;;;;;;5032313;28;20190;-66
2022/01/18 10:45:28;;;;;;;2.00;1.50;;;18.00;55.80;;;;;;5052245;28;20243;-67
2022/01/18 10:48:02;;;;;;;2.60;1.55;;;18.00;56.60;;;;;;5074081;28;20162;-67
2022/01/18 10:50:32;;;;;;;3.47;1.40;;;17.90;56.00;;;;;;5072695;28;20230;-66
2022/01/18 10:53:15;;;;;;;2.42;1.50;;;18.00;56.10;;;;;;5074084;28;20529;-67
2022/01/18 10:55:41;;;;;;;4.22;1.88;;;17.90;56.20;;;;;;5069343;28;20301;-67
2022/01/18 10:58:14;;;;;;;3.03;1.45;;;17.90;56.20;;;;;;5052990;28;20262;-68
2022/01/18 11:00:39;;;;;;;2.40;1.48;;;17.90;56.20;;;;;;5053274;28;20717;-67
2022/01/18 11:03:06;;;;;;;3.90;1.67;;;17.90;56.20;;;;;;5053477;28;20213;-68
2022/01/18 11:05:33;;;;;;;2.75;1.65;;;17.90;56.20;;;;;;5052521;28;20634;-67
2022/01/18 11:08:04;;;;;;;1.90;1.52;;;17.90;56.10;;;;;;5053778;28;20233;-66
2022/01/18 11:10:40;;;;;;;3.15;1.60;;;17.90;56.00;;;;;;5052362;28;20179;-65
2022/01/18 11:13:10;;;;;;;2.55;1.40;;;17.90;56.00;;;;;;5053701;28;20175;-66
2022/01/18 11:15:42;;;;;;;2.15;1.55;;;17.90;56.70;;;;;;5053381;28;20316;-66
2022/01/18 11:18:15;;;;;;;1.55;1.30;;;17.80;56.10;;;;;;5052799;28;20175;-67
2022/01/18 11:20:43;;;;;;;2.72;1.55;;;17.80;56.20;;;;;;5053088;28;20283;-66
2022/01/18 11:23:09;;;;;;;1.50;1.38;;;17.70;56.20;;;;;;5053056;28;20183;-67
2022/01/18 11:25:36;;;;;;;1.70;1.15;;;17.80;56.40;;;;;;5052360;28;20182;-66
2022/01/18 11:28:02;;;;;;;3.30;1.50;;;17.70;56.30;;;;;;5053411;28;20182;-66
2022/01/18 11:30:31;;;;;;;1.83;1.27;;;17.80;56.40;;;;;;5052824;28;20179;-67
2022/01/18 11:32:57;;;;;;;2.25;1.35;;;17.80;56.30;;;;;;5052698;28;20217;-67
2022/01/18 11:35:28;;;;;;;2.38;1.30;;;17.80;56.20;;;;;;5052096;28;20631;-65
2022/01/18 11:38:15;;;;;;;1.67;1.35;;;17.80;56.70;;;;;;5015788;28;20187;-60
2022/01/18 11:40:47;;;;;;;3.58;1.42;;;17.80;56.10;;;;;;5030874;28;20278;-64
2022/01/18 11:43:13;;;;;;;2.35;1.20;;;17.70;56.20;;;;;;5032924;28;20592;-65
2022/01/18 11:45:42;;;;;;;2.58;1.60;;;17.70;56.30;;;;;;5031880;28;20191;-64
2022/01/18 11:48:13;;;;;;;4.18;1.50;;;17.70;56.50;;;;;;5033039;28;20673;-64
2022/01/18 11:51:05;;;;;;;3.95;1.38;;;17.70;56.60;;;;;;5032482;28;20239;-62
2022/01/18 11:53:44;;;;;;;3.33;1.65;;;17.70;56.70;;;;;;5031953;28;20175;-68
2022/01/18 11:56:33;;;;;;;4.93;1.20;;;17.80;56.70;;;;;;5032576;28;20212;-63
2022/01/18 11:59:12;;;;;;;3.88;1.30;;;17.80;56.50;;;;;;5032715;28;20685;-63
2022/01/18 12:01:50;;;;;;;3.30;1.42;;;17.90;56.50;;;;;;5031510;28;20288;-63
2022/01/18 12:04:49;;;;;;;2.38;1.30;;;17.90;56.30;;;;;;5032728;28;20187;-62
2022/01/18 12:07:33;;;;;;;2.80;1.13;;;18.10;56.20;;;;;;5031761;28;20525;-62
2022/01/18 12:09:59;;;;;;;1.20;1.10;;;18.20;56.10;;;;;;5032261;28;20179;-61
2022/01/18 12:12:39;;;;;;;4.00;1.23;;;18.30;55.80;;;;;;5031913;28;20654;-61
2022/01/18 12:15:31;;;;;;;4.03;1.50;;;18.50;55.70;;;;;;5031451;28;20207;-62
2022/01/18 12:17:58;;;;;;;2.70;1.40;;;18.50;55.60;;;;;;5032010;28;20607;-62
2022/01/18 12:20:35;;;;;;;3.17;1.73;;;18.60;55.40;;;;;;5032011;28;20180;-62
2022/01/18 12:23:00;;;;;;;1.90;1.50;;;18.70;55.20;;;;;;5031722;28;20195;-62
2022/01/18 12:25:27;;;;;;;1.70;1.23;;;18.70;55.10;;;;;;5048658;28;20179;-62
2022/01/18 12:27:55;;;;;;;1.55;1.10;;;19.00;55.10;;;;;;5051163;28;20487;-63
2022/01/18 12:30:53;;;;;;;4.50;1.10;;;18.90;54.90;;;;;;5033978;28;20336;-62
2022/01/18 12:33:18;;;;;;;2.95;1.10;;;18.90;54.80;;;;;;5051635;28;20697;-63
2022/01/18 12:35:44;;;;;;;4.25;1.40;;;18.90;54.70;;;;;;5053642;28;20676;-64
2022/01/18 12:38:20;;;;;;;2.08;1.10;;;19.00;54.60;;;;;;5070286;28;20607;-63
2022/01/18 12:40:48;;;;;;;3.78;1.10;;;19.00;54.60;;;;;;5051712;28;20614;-63
2022/01/18 12:45:40;;;;;;;2.13;1.20;;;19.00;54.50;;;;;;5051338;28;20171;-63
2022/01/18 12:48:09;;;;;;;1.92;1.27;;;19.00;54.50;;;;;;5051808;28;20179;-63
2022/01/18 12:50:45;;;;;;;3.30;1.23;;;19.00;54.50;;;;;;5050334;28;20359;-62
2022/01/18 12:53:22;;;;;;;1.88;1.13;;;19.00;54.50;;;;;;5051781;28;20178;-63
2022/01/18 12:55:54;;;;;;;2.08;1.10;;;18.90;54.50;;;;;;5051705;28;20243;-63
2022/01/18 12:58:35;;;;;;;1.60;1.05;;;18.80;54.50;;;;;;5051265;28;20179;-62
2022/01/18 13:01:09;;;;;;;4.95;1.42;;;18.90;54.70;;;;;;5051280;28;20179;-63
2022/01/18 13:03:39;;;;;;;1.67;1.50;;;18.80;54.70;;;;;;5049831;28;20171;-63
2022/01/18 13:06:09;;;;;;;3.85;1.50;;;18.80;54.80;;;;;;5051498;28;20178;-63
2022/01/18 13:08:44;;;;;;;1.83;1.40;;;18.80;54.90;;;;;;5050982;28;20535;-62
2022/01/18 13:11:10;;;;;;;2.70;1.33;;;18.80;54.80;;;;;;5050760;28;20178;-62
2022/01/18 13:13:35;;;;;;;1.55;1.00;;;18.80;54.90;;;;;;5051262;28;20175;-62
2022/01/18 13:16:07;;;;;;;2.83;1.10;;;18.70;54.80;;;;;;5051422;28;20214;-62
2022/01/18 13:27:02;;;;;;;2.95;1.50;;;18.60;55.00;;;;;;5051248;28;20668;-62
2022/01/18 13:29:28;;;;;;;2.85;1.13;;;18.60;55.00;;;;;;5050956;28;20178;-62
2022/01/18 13:32:31;;;;;;;1.92;1.20;;;18.70;55.00;;;;;;5050652;28;20175;-63
2022/01/18 13:34:59;;;;;;;2.50;1.50;;;18.70;55.00;;;;;;5051251;28;20230;-63
2022/01/18 13:37:27;;;;;;;1.63;1.17;;;18.70;54.90;;;;;;5067330;28;20708;-63
2022/01/18 13:39:57;;;;;;;1.98;1.35;;;18.60;54.80;;;;;;5070448;28;20236;-63
2022/01/18 13:42:34;;;;;;;1.50;1.02;;;18.60;55.00;;;;;;5071024;28;20308;-63
2022/01/18 13:45:19;;;;;;;2.00;1.20;;;18.60;55.10;;;;;;5071355;28;20529;-65
2022/01/18 13:48:06;;;;;;;3.35;1.30;;;18.60;55.10;;;;;;5071273;28;20181;-63
2022/01/18 13:50:48;;;;;;;2.97;1.52;;;18.60;55.10;;;;;;5070407;28;20232;-63
2022/01/18 13:53:32;;;;;;;3.00;1.48;;;18.60;55.30;;;;;;5070175;28;20186;-64
2022/01/18 13:56:17;;;;;;;2.55;1.33;;;18.60;55.40;;;;;;5071093;28;20283;-65
2022/01/18 13:58:58;;;;;;;1.55;1.35;;;18.60;55.60;;;;;;5070535;28;20252;-65
2022/01/18 14:01:28;;;;;;;2.60;1.50;;;18.70;55.60;;;;;;5069331;28;20179;-63
2022/01/18 14:03:56;;;;;;;3.42;1.48;;;18.70;55.60;;;;;;5070820;28;20221;-64
2022/01/18 14:06:42;;;;;;;2.97;1.42;;;18.80;55.50;;;;;;5069762;28;20170;-63
2022/01/18 14:09:08;;;;;;;2.08;1.30;;;18.90;55.30;;;;;;5070645;28;20603;-63
2022/01/18 14:11:36;;;;;;;4.70;1.40;;;19.00;55.30;;;;;;5070425;28;20252;-62